Time;durP1;ratioP1;P1;durP2;ratioP2;P2;SDS_P1;SDS_P2;PMS_P1;PMS_P2;Temp;Humidity;BMP_temperature;BMP_pressure;BME280_temperature;BME280_humidity;BME280_pressure;Samples;Min_cycle;Max_cycle;Signal;HPM_P1;HPM_P2
2022/03/22 07:31:47;;;;;;;11.43;9.30;;;;;;;;;;10578494;28;19911;-86
2022/03/22 07:42:50;;;;;;;11.10;8.93;;;;;;;;;;10620431;28;20020;-87
2022/03/22 08:04:50;;;;;;;10.50;8.60;;;;;;;;;;10664921;27;20038;-82
2022/03/22 08:09:51;;;;;;;11.88;8.85;;;;;;;;;;10651077;27;20018;-83
2022/03/22 08:14:54;;;;;;;12.90;10.27;;;;;;;;;;10629259;27;20050;-86
2022/03/22 08:19:55;;;;;;;15.23;10.38;;;;;;;;;;10618914;27;20030;-86
2022/03/22 08:24:56;;;;;;;16.25;11.15;;;;;;;;;;10621331;27;20027;-84
2022/03/22 08:29:57;;;;;;;13.48;10.93;;;;;;;;;;10621225;27;20030;-84
2022/03/22 08:34:58;;;;;;;16.70;13.90;;;;;;;;;;10624257;27;20068;-84
2022/03/22 08:39:59;;;;;;;16.73;14.00;;;;;;;;;;10622032;27;20026;-81
2022/03/22 08:45:00;;;;;;;14.40;12.48;;;;;;;;;;10639115;22;20068;-83
2022/03/22 08:50:13;;;;;;;16.33;12.13;;;;;;;;;;10532285;28;20032;-84
2022/03/22 08:55:16;;;;;;;15.98;12.00;;;;;;;;;;10515958;28;20048;-84
2022/03/22 09:00:19;;;;;;;15.10;11.82;;;;;;;;;;10508267;28;20048;-84
2022/03/22 09:10:40;;;;;;;13.15;11.73;;;;;;;;;;10526545;28;20054;-84
2022/03/22 09:15:41;;;;;;;12.55;10.98;;;;;;;;;;10506276;28;20029;-82
2022/03/22 09:20:43;;;;;;;13.85;10.98;;;;;;;;;;10506351;28;20095;-83
2022/03/22 09:25:45;;;;;;;14.68;11.02;;;;;;;;;;10522797;28;20025;-83
2022/03/22 09:30:48;;;;;;;14.65;10.90;;;;;;;;;;10521801;28;20028;-82
2022/03/22 09:35:49;;;;;;;15.45;11.65;;;;;;;;;;10504193;28;20023;-82
2022/03/22 09:40:52;;;;;;;12.13;10.70;;;;;;;;;;10504094;28;20036;-83
2022/03/22 09:45:54;;;;;;;14.73;11.23;;;;;;;;;;10504479;28;20032;-84
2022/03/22 09:56:20;;;;;;;15.48;10.55;;;;;;;;;;10522553;28;20127;-84
2022/03/22 10:01:25;;;;;;;13.35;10.52;;;;;;;;;;10520564;28;20020;-83
2022/03/22 10:06:26;;;;;;;11.95;10.20;;;;;;;;;;10499875;28;20445;-84
2022/03/22 10:11:37;;;;;;;11.85;9.95;;;;;;;;;;10501195;28;20076;-83
2022/03/22 10:16:51;;;;;;;12.18;10.00;;;;;;;;;;10500708;28;20080;-83
2022/03/22 10:21:53;;;;;;;12.50;10.38;;;;;;;;;;10499601;28;20051;-82
2022/03/22 10:26:54;;;;;;;11.50;9.05;;;;;;;;;;10503311;28;20017;-82
2022/03/22 10:31:57;;;;;;;11.13;9.43;;;;;;;;;;10500325;28;20025;-84
2022/03/22 10:37:00;;;;;;;13.60;10.15;;;;;;;;;;10487884;28;20039;-83
2022/03/22 10:42:28;;;;;;;12.65;10.68;;;;;;;;;;10522239;28;20024;-84
2022/03/22 10:47:33;;;;;;;14.27;12.35;;;;;;;;;;10508629;28;20056;-84
2022/03/22 10:53:00;;;;;;;13.07;10.32;;;;;;;;;;10489500;28;20032;-84
2022/03/22 10:58:21;;;;;;;15.73;12.88;;;;;;;;;;10504068;28;20094;-83
2022/03/22 11:03:24;;;;;;;14.65;11.57;;;;;;;;;;10493573;28;20115;-85
2022/03/22 11:08:25;;;;;;;17.13;11.23;;;;;;;;;;10492961;28;20043;-84
2022/03/22 11:13:27;;;;;;;12.27;10.35;;;;;;;;;;10494468;28;20043;-84
2022/03/22 11:18:29;;;;;;;12.68;10.10;;;;;;;;;;10495891;28;20364;-83
2022/03/22 11:23:31;;;;;;;12.77;9.82;;;;;;;;;;10493756;28;20115;-84
2022/03/22 11:28:40;;;;;;;12.23;10.20;;;;;;;;;;10500139;28;20047;-84
2022/03/22 11:39:03;;;;;;;13.18;10.23;;;;;;;;;;10526631;28;20025;-83
2022/03/22 11:44:08;;;;;;;11.93;10.00;;;;;;;;;;10520298;28;20036;-83
2022/03/22 11:49:13;;;;;;;13.60;9.65;;;;;;;;;;10503437;28;20035;-83
2022/03/22 11:54:14;;;;;;;14.13;9.88;;;;;;;;;;10504702;28;20482;-84
2022/03/22 11:59:16;;;;;;;12.95;10.15;;;;;;;;;;10503773;28;20032;-83
2022/03/22 12:04:17;;;;;;;15.02;12.10;;;;;;;;;;10501050;28;20534;-85
2022/03/22 12:09:25;;;;;;;14.52;10.02;;;;;;;;;;10504677;28;20033;-84
2022/03/22 12:14:34;;;;;;;14.35;10.57;;;;;;;;;;10503709;28;20024;-83
2022/03/22 12:19:36;;;;;;;14.40;10.38;;;;;;;;;;10509753;28;20021;-83
2022/03/22 12:24:37;;;;;;;22.30;16.45;;;;;;;;;;10507078;28;20019;-83
2022/03/22 12:29:55;;;;;;;11.75;9.88;;;;;;;;;;10507183;28;20025;-84
2022/03/22 12:34:57;;;;;;;12.98;9.38;;;;;;;;;;10523618;28;20024;-83
2022/03/22 12:39:58;;;;;;;14.23;8.93;;;;;;;;;;10500808;28;20049;-83
2022/03/22 12:44:59;;;;;;;9.57;8.57;;;;;;;;;;10499934;28;20480;-84
2022/03/22 12:50:00;;;;;;;20.55;9.25;;;;;;;;;;10499394;28;20476;-83
2022/03/22 12:55:01;;;;;;;13.20;9.07;;;;;;;;;;10495790;28;20025;-83
2022/03/22 13:00:27;;;;;;;13.23;9.48;;;;;;;;;;10503210;28;20029;-85
2022/03/22 13:05:53;;;;;;;12.68;9.05;;;;;;;;;;10517504;28;20028;-83
2022/03/22 13:16:22;;;;;;;14.20;8.95;;;;;;;;;;10497439;28;20040;-82
2022/03/22 13:21:33;;;;;;;12.20;8.57;;;;;;;;;;10513101;28;20046;-84
2022/03/22 13:26:34;;;;;;;12.68;8.10;;;;;;;;;;10493823;28;20021;-84
2022/03/22 13:31:37;;;;;;;36.15;30.30;;;;;;;;;;10491914;28;20039;-83
2022/03/22 13:36:47;;;;;;;12.13;8.70;;;;;;;;;;10510305;28;20017;-83
2022/03/22 13:41:48;;;;;;;12.15;8.00;;;;;;;;;;10479226;28;20589;-83
2022/03/22 13:46:52;;;;;;;14.88;8.60;;;;;;;;;;10493119;28;20040;-84
2022/03/22 13:52:09;;;;;;;11.68;6.22;;;;;;;;;;10476478;28;20498;-83
2022/03/22 13:57:13;;;;;;;11.88;6.20;;;;;;;;;;10493245;28;20031;-83
2022/03/22 14:02:41;;;;;;;15.68;6.93;;;;;;;;;;10503482;28;20016;-84
2022/03/22 14:07:58;;;;;;;15.40;7.60;;;;;;;;;;10488593;28;20036;-84
2022/03/22 14:12:59;;;;;;;8.80;6.65;;;;;;;;;;10500898;28;20499;-84
2022/03/22 14:18:02;;;;;;;13.40;7.75;;;;;;;;;;10494677;28;20036;-84
2022/03/22 14:23:03;;;;;;;12.93;7.10;;;;;;;;;;10494313;28;20084;-82
2022/03/22 14:28:10;;;;;;;10.02;6.00;;;;;;;;;;10512801;28;20032;-83
2022/03/22 14:33:13;;;;;;;10.45;6.70;;;;;;;;;;10500401;28;20043;-83
2022/03/22 14:38:21;;;;;;;11.55;5.75;;;;;;;;;;10496096;28;20534;-83
2022/03/22 14:43:25;;;;;;;8.95;5.30;;;;;;;;;;10494193;23;20083;-83
2022/03/22 14:48:27;;;;;;;8.27;5.15;;;;;;;;;;10397143;28;20026;-82
2022/03/22 14:58:51;;;;;;;11.30;6.47;;;;;;;;;;10397120;28;20050;-82
2022/03/22 15:03:53;;;;;;;15.00;7.68;;;;;;;;;;10374902;28;20075;-82
2022/03/22 15:08:55;;;;;;;10.65;6.57;;;;;;;;;;10388008;28;20026;-82
2022/03/22 15:13:56;;;;;;;14.60;6.50;;;;;;;;;;10387854;28;20026;-81
2022/03/22 15:18:57;;;;;;;9.50;5.97;;;;;;;;;;10373636;28;20566;-81
2022/03/22 15:23:59;;;;;;;13.65;7.90;;;;;;;;;;10396489;28;20037;-81
2022/03/22 15:29:00;;;;;;;10.73;6.88;;;;;;;;;;10380354;28;20134;-82
2022/03/22 15:34:01;;;;;;;13.00;6.85;;;;;;;;;;10381526;28;20064;-82
2022/03/22 15:39:02;;;;;;;10.80;7.07;;;;;;;;;;10375521;28;20049;-82
2022/03/22 15:44:03;;;;;;;9.32;5.65;;;;;;;;;;10368060;28;20042;-82
2022/03/22 15:49:05;;;;;;;12.38;8.60;;;;;;;;;;10393548;28;20448;-82
2022/03/22 15:54:06;;;;;;;9.38;6.53;;;;;;;;;;10372714;28;20022;-81
2022/03/22 15:59:07;;;;;;;14.80;9.02;;;;;;;;;;10371913;28;20026;-81
2022/03/22 16:04:08;;;;;;;11.73;9.43;;;;;;;;;;10380338;28;20444;-82
2022/03/22 16:09:11;;;;;;;9.05;6.85;;;;;;;;;;10403044;28;20049;-82
2022/03/22 16:14:13;;;;;;;14.85;9.43;;;;;;;;;;10386196;28;20057;-81
2022/03/22 16:19:14;;;;;;;18.55;12.20;;;;;;;;;;10388670;28;20108;-82
2022/03/22 16:24:16;;;;;;;14.43;10.25;;;;;;;;;;10388973;28;20026;-83
2022/03/22 16:29:18;;;;;;;18.80;9.10;;;;;;;;;;10387173;28;20111;-82
2022/03/22 16:39:41;;;;;;;11.60;8.43;;;;;;;;;;10406774;28;20026;-82
2022/03/22 16:44:47;;;;;;;10.00;7.93;;;;;;;;;;10386661;28;20044;-83
2022/03/22 16:49:56;;;;;;;10.40;7.90;;;;;;;;;;10386844;28;20018;-82
2022/03/22 16:54:57;;;;;;;12.25;7.63;;;;;;;;;;10386788;28;20037;-83
2022/03/22 16:59:58;;;;;;;10.45;7.68;;;;;;;;;;10388672;28;20022;-83
2022/03/22 17:05:01;;;;;;;10.82;7.93;;;;;;;;;;10382852;28;20124;-81
2022/03/22 17:10:05;;;;;;;12.45;9.57;;;;;;;;;;10370579;28;20512;-81
2022/03/22 17:15:07;;;;;;;11.48;9.75;;;;;;;;;;10374889;28;20030;-81
2022/03/22 17:20:09;;;;;;;11.75;9.05;;;;;;;;;;10405190;28;20025;-80
2022/03/22 17:25:10;;;;;;;16.55;11.32;;;;;;;;;;10378654;28;20021;-82
2022/03/22 17:30:12;;;;;;;13.93;11.10;;;;;;;;;;10361621;28;20029;-82
2022/03/22 17:35:19;;;;;;;20.73;12.10;;;;;;;;;;10373387;28;20032;-82
2022/03/22 18:02:57;;;;;;;10.63;8.60;;;;;;;;;;10391471;28;20018;-83
2022/03/22 18:08:04;;;;;;;10.30;8.02;;;;;;;;;;10338182;28;20034;-83
2022/03/22 18:13:29;;;;;;;11.15;7.93;;;;;;;;;;10374942;28;20109;-83
2022/03/22 18:18:54;;;;;;;9.55;7.95;;;;;;;;;;10348861;28;20036;-83
2022/03/22 18:24:00;;;;;;;11.38;7.95;;;;;;;;;;10268148;28;20117;-83
2022/03/22 18:29:20;;;;;;;7.80;6.97;;;;;;;;;;10264907;28;20590;-83
2022/03/22 18:35:02;;;;;;;8.27;7.25;;;;;;;;;;10268020;28;20065;-82
2022/03/22 18:40:36;;;;;;;8.90;7.57;;;;;;;;;;10298761;28;20042;-83
2022/03/22 18:51:36;;;;;;;11.52;8.20;;;;;;;;;;10302298;28;20042;-82
2022/03/22 18:57:00;;;;;;;16.55;9.68;;;;;;;;;;10359681;28;20422;-83
2022/03/22 19:02:21;;;;;;;9.68;7.50;;;;;;;;;;10362956;28;20034;-83
2022/03/22 19:07:37;;;;;;;11.02;8.98;;;;;;;;;;10380742;28;20030;-83
2022/03/22 19:24:06;;;;;;;11.63;9.70;;;;;;;;;;10376364;28;20482;-82
2022/03/22 19:29:12;;;;;;;16.23;11.63;;;;;;;;;;10377520;28;20050;-82
2022/03/22 19:51:39;;;;;;;9.98;8.45;;;;;;;;;;10381936;28;20425;-82
2022/03/22 19:57:24;;;;;;;10.43;9.25;;;;;;;;;;10213942;29;20095;-82
2022/03/22 20:03:15;;;;;;;10.75;9.65;;;;;;;;;;10096385;29;20068;-82
2022/03/22 20:13:50;;;;;;;11.52;9.68;;;;;;;;;;10145878;28;20112;-81
2022/03/22 20:19:00;;;;;;;11.52;9.77;;;;;;;;;;10298349;28;20039;-82
2022/03/22 20:24:09;;;;;;;12.52;10.40;;;;;;;;;;10281755;28;20110;-81
